Aeroporto :
LOGIN :

Iscrizione | Disclaimer

   EN    FR    IT 

 










Sommario :    VFR   VFR Marginale   IFR   IFR Intensivo   IFR Molto Intensivo
Visibilità : 
Base nubi : 
>= 8 km
>= 3000ft
5 / 8 km
1000 / 3000 ft
1500m / 5 km
500 / 1000 ft
800 / 1500m
200 / 500 ft
< 800m
< 200 ft
Simboli :   Temporali  Nebbia  Neve Forte  Precipitazioni Forti  Vento > 20 kt
SIGMETs :   Varie  Temporali  Ghiacco  Turbolenza  Onda orograficha  Ceneri Vulcaniche






- Altitudine del aeroporto : 72 ft
- Codice IATA : UDE


EHVK - Volkel Airbase

ULTIMO METAR :
  • 261225Z AUTO 08001KT 6000 BR OVC005 09/07 Q1020 YLO BECMG 4500 BR -DZ SCT004 BKN006 OVC008

METARs OBSOLETI :
  • 261215Z AUTO VRB01KT 7000 BR OVC006 09/07 Q1020 YLO BECMG 4500 BR -DZ SCT004 BKN006 OVC008
  • 261155Z AUTO 28001KT 8000 BR OVC006 09/07 Q1020 YLO
  • 261129Z AUTO 24002KT 9000 BR OVC006 09/07 Q1020 YLO
  • 261125Z AUTO 24002KT 8000 BR OVC007 09/07 Q1020 GRN
  • 261055Z AUTO VRB02KT 9999 OVC007 09/07 Q1021 GRN
  • 261025Z AUTO 22004KT 190V250 9000 BR OVC008 09/06 Q1021 GRN
  • 260955Z AUTO 21003KT 9000 BR OVC007 08/07 Q1021 GRN

TAF TAF EHVK
Valido dal 26 a 10 ore il 26 a 22 ore UTC


260947Z 2610/2622 21003KT 8000 FEW007 BKN009
PROB40
TEMPO 2614/2619 4500 BR SCT006 OVC009
PROB30
TEMPO 2614/2616 2500 -DZ BR SCT004 BKN006
BECMG 2619/2622 2500 BR SCT004 OVC006
PROB40 2620/2622 0400 FG -DZ BKN001



MetMap, La meteo Aeronautica in un colpo d'occhio ! - Copyright ORBIFLY Dicembre 2007 - Disclaimer

ORBIFLY MET'MAP TEAM :

Programmazione e sviluppo : Alexandra Zaïnal
Concezione : Baudouin d'Aumeries
Aiuto per la programmazione : Marc-Olivier Méhu
Supporto tecnico e logistico : Manuel Goepfert
Aiuto per la traduzione : Arnaldo La Scala

Contatto : metmap@orbifly.com




FONTI E CREDITI :

   NOAA